sensor_id;sensor_type;location;lat;lon;timestamp;pressure;altitude;pressure_sealevel;temperature;humidity
51359;BME280;37448;51.588;7.248;2022-12-18T00:00:53;102301.03;;;-9.33;87.81
51359;BME280;37448;51.588;7.248;2022-12-18T00:02:55;102287.38;;;-9.35;87.94
51359;BME280;37448;51.588;7.248;2022-12-18T00:04:55;102293.44;;;-9.33;88.00
51359;BME280;37448;51.588;7.248;2022-12-18T00:06:56;102295.97;;;-9.33;88.06
51359;BME280;37448;51.588;7.248;2022-12-18T00:08:58;102295.88;;;-9.34;87.78
51359;BME280;37448;51.588;7.248;2022-12-18T00:11:04;102306.09;;;-9.33;88.44
51359;BME280;37448;51.588;7.248;2022-12-18T00:13:05;102299.41;;;-9.32;88.21
51359;BME280;37448;51.588;7.248;2022-12-18T00:15:05;102306.59;;;-9.37;87.28
51359;BME280;37448;51.588;7.248;2022-12-18T00:17:06;102308.72;;;-9.42;87.22
51359;BME280;37448;51.588;7.248;2022-12-18T00:19:06;102304.72;;;-9.40;87.53
51359;BME280;37448;51.588;7.248;2022-12-18T00:21:10;102299.75;;;-9.48;87.09
51359;BME280;37448;51.588;7.248;2022-12-18T00:23:11;102308.47;;;-9.45;87.77
51359;BME280;37448;51.588;7.248;2022-12-18T00:25:11;102317.97;;;-9.42;87.58
51359;BME280;37448;51.588;7.248;2022-12-18T00:27:11;102301.13;;;-9.42;87.70
51359;BME280;37448;51.588;7.248;2022-12-18T00:29:13;102297.22;;;-9.48;87.06
51359;BME280;37448;51.588;7.248;2022-12-18T00:31:17;102289.63;;;-9.48;87.24
51359;BME280;37448;51.588;7.248;2022-12-18T00:33:18;102287.66;;;-9.61;86.12
51359;BME280;37448;51.588;7.248;2022-12-18T00:35:18;102286.78;;;-9.62;86.61
51359;BME280;37448;51.588;7.248;2022-12-18T00:37:20;102288.28;;;-9.64;87.04
51359;BME280;37448;51.588;7.248;2022-12-18T00:39:24;102289.78;;;-9.66;87.42
51359;BME280;37448;51.588;7.248;2022-12-18T00:41:26;102293.59;;;-9.61;87.44
51359;BME280;37448;51.588;7.248;2022-12-18T00:43:45;102294.84;;;-9.66;87.23
51359;BME280;37448;51.588;7.248;2022-12-18T00:45:45;102293.69;;;-9.70;87.26
51359;BME280;37448;51.588;7.248;2022-12-18T00:47:46;102298.47;;;-9.73;87.46
51359;BME280;37448;51.588;7.248;2022-12-18T00:49:46;102308.75;;;-9.71;87.47
51359;BME280;37448;51.588;7.248;2022-12-18T00:51:47;102299.50;;;-9.71;87.27
51359;BME280;37448;51.588;7.248;2022-12-18T00:53:48;102306.22;;;-9.71;87.22
51359;BME280;37448;51.588;7.248;2022-12-18T00:55:48;102309.50;;;-9.72;86.94
51359;BME280;37448;51.588;7.248;2022-12-18T00:57:51;102313.25;;;-9.77;87.35
51359;BME280;37448;51.588;7.248;2022-12-18T00:59:52;102311.69;;;-9.86;87.00
51359;BME280;37448;51.588;7.248;2022-12-18T01:01:52;102312.31;;;-9.88;86.30
51359;BME280;37448;51.588;7.248;2022-12-18T01:03:54;102310.19;;;-9.84;87.36
51359;BME280;37448;51.588;7.248;2022-12-18T01:05:54;102309.31;;;-9.84;87.46
51359;BME280;37448;51.588;7.248;2022-12-18T01:07:57;102295.25;;;-10.10;85.83
51359;BME280;37448;51.588;7.248;2022-12-18T01:09:57;102304.72;;;-10.07;86.05
51359;BME280;37448;51.588;7.248;2022-12-18T01:11:57;102304.72;;;-10.07;86.39
51359;BME280;37448;51.588;7.248;2022-12-18T01:13:58;102304.94;;;-10.15;87.44
51359;BME280;37448;51.588;7.248;2022-12-18T01:15:58;102302.00;;;-10.00;88.24
51359;BME280;37448;51.588;7.248;2022-12-18T01:17:59;102305.47;;;-10.09;86.34
51359;BME280;37448;51.588;7.248;2022-12-18T01:20:01;102291.97;;;-10.09;87.37
51359;BME280;37448;51.588;7.248;2022-12-18T01:22:01;102303.78;;;-9.99;88.00
51359;BME280;37448;51.588;7.248;2022-12-18T01:24:01;102295.53;;;-10.07;86.88
51359;BME280;37448;51.588;7.248;2022-12-18T01:26:12;102295.16;;;-10.01;87.42
51359;BME280;37448;51.588;7.248;2022-12-18T01:28:12;102298.25;;;-9.95;87.88
51359;BME280;37448;51.588;7.248;2022-12-18T01:30:14;102299.34;;;-10.02;86.91
51359;BME280;37448;51.588;7.248;2022-12-18T01:32:15;102305.84;;;-9.95;87.55
51359;BME280;37448;51.588;7.248;2022-12-18T01:34:15;102315.38;;;-10.01;86.93
51359;BME280;37448;51.588;7.248;2022-12-18T01:36:21;102305.25;;;-10.01;86.63
51359;BME280;37448;51.588;7.248;2022-12-18T01:38:22;102305.63;;;-10.07;86.82
51359;BME280;37448;51.588;7.248;2022-12-18T01:40:22;102295.38;;;-10.09;87.38
51359;BME280;37448;51.588;7.248;2022-12-18T01:42:25;102293.28;;;-10.23;86.53
51359;BME280;37448;51.588;7.248;2022-12-18T01:44:53;102292.63;;;-10.20;86.27
51359;BME280;37448;51.588;7.248;2022-12-18T01:46:55;102291.69;;;-10.12;87.75
51359;BME280;37448;51.588;7.248;2022-12-18T01:49:00;102297.28;;;-10.06;87.92
51359;BME280;37448;51.588;7.248;2022-12-18T01:51:01;102297.13;;;-10.07;87.32
51359;BME280;37448;51.588;7.248;2022-12-18T01:53:10;102288.53;;;-10.10;87.72
51359;BME280;37448;51.588;7.248;2022-12-18T01:55:12;102296.38;;;-10.06;87.32
51359;BME280;37448;51.588;7.248;2022-12-18T01:57:13;102285.41;;;-10.07;86.79
51359;BME280;37448;51.588;7.248;2022-12-18T01:59:14;102286.28;;;-10.06;87.01
51359;BME280;37448;51.588;7.248;2022-12-18T02:01:14;102281.97;;;-10.07;87.58
51359;BME280;37448;51.588;7.248;2022-12-18T02:03:15;102282.72;;;-10.09;87.11
51359;BME280;37448;51.588;7.248;2022-12-18T02:05:19;102283.97;;;-10.14;86.53
51359;BME280;37448;51.588;7.248;2022-12-18T02:12:22;102275.97;;;-10.18;85.79
51359;BME280;37448;51.588;7.248;2022-12-18T02:19:00;102287.25;;;-10.15;87.00
51359;BME280;37448;51.588;7.248;2022-12-18T02:27:34;102263.06;;;-10.21;86.71
51359;BME280;37448;51.588;7.248;2022-12-18T02:29:49;102264.72;;;-10.22;86.54
51359;BME280;37448;51.588;7.248;2022-12-18T02:31:52;102258.16;;;-10.20;87.55
51359;BME280;37448;51.588;7.248;2022-12-18T02:33:56;102264.97;;;-10.19;86.98
51359;BME280;37448;51.588;7.248;2022-12-18T02:35:59;102266.50;;;-10.21;87.18
51359;BME280;37448;51.588;7.248;2022-12-18T02:38:03;102275.09;;;-10.19;86.54
51359;BME280;37448;51.588;7.248;2022-12-18T02:40:07;102263.41;;;-10.27;86.88
51359;BME280;37448;51.588;7.248;2022-12-18T02:42:11;102266.81;;;-10.27;87.12
51359;BME280;37448;51.588;7.248;2022-12-18T02:44:12;102267.09;;;-10.24;87.13
51359;BME280;37448;51.588;7.248;2022-12-18T02:46:43;102264.41;;;-10.25;87.05
51359;BME280;37448;51.588;7.248;2022-12-18T02:48:49;102270.53;;;-10.23;87.00
51359;BME280;37448;51.588;7.248;2022-12-18T02:51:10;102271.53;;;-10.21;86.73
51359;BME280;37448;51.588;7.248;2022-12-18T02:53:26;102268.75;;;-10.24;86.46
51359;BME280;37448;51.588;7.248;2022-12-18T02:58:10;102276.34;;;-10.24;86.46
51359;BME280;37448;51.588;7.248;2022-12-18T03:00:19;102281.38;;;-10.24;86.83
51359;BME280;37448;51.588;7.248;2022-12-18T03:02:25;102282.25;;;-10.24;86.88
51359;BME280;37448;51.588;7.248;2022-12-18T03:04:33;102279.88;;;-10.22;86.84
51359;BME280;37448;51.588;7.248;2022-12-18T03:06:39;102268.59;;;-10.26;86.50
51359;BME280;37448;51.588;7.248;2022-12-18T03:08:44;102277.19;;;-10.24;86.54
51359;BME280;37448;51.588;7.248;2022-12-18T03:10:58;102275.56;;;-10.23;86.95
51359;BME280;37448;51.588;7.248;2022-12-18T03:13:04;102272.31;;;-10.22;86.68
51359;BME280;37448;51.588;7.248;2022-12-18T03:15:14;102253.16;;;-10.29;86.74
51359;BME280;37448;51.588;7.248;2022-12-18T03:17:19;102270.63;;;-10.21;87.44
51359;BME280;37448;51.588;7.248;2022-12-18T03:19:22;102275.00;;;-10.29;86.18
51359;BME280;37448;51.588;7.248;2022-12-18T03:21:29;102282.00;;;-10.27;87.16
51359;BME280;37448;51.588;7.248;2022-12-18T03:23:36;102278.56;;;-10.27;86.88
51359;BME280;37448;51.588;7.248;2022-12-18T03:25:40;102273.59;;;-10.36;86.22
51359;BME280;37448;51.588;7.248;2022-12-18T03:27:45;102268.75;;;-10.43;85.83
51359;BME280;37448;51.588;7.248;2022-12-18T03:30:03;102248.63;;;-10.80;85.50
51359;BME280;37448;51.588;7.248;2022-12-18T03:32:16;102257.88;;;-10.61;86.27
51359;BME280;37448;51.588;7.248;2022-12-18T03:34:26;102253.25;;;-10.57;86.95
51359;BME280;37448;51.588;7.248;2022-12-18T03:36:28;102250.31;;;-10.61;86.31
51359;BME280;37448;51.588;7.248;2022-12-18T03:38:30;102244.19;;;-10.55;87.05
51359;BME280;37448;51.588;7.248;2022-12-18T03:42:51;102237.34;;;-10.56;87.25
51359;BME280;37448;51.588;7.248;2022-12-18T03:47:08;102247.41;;;-10.47;87.05
51359;BME280;37448;51.588;7.248;2022-12-18T03:49:38;102252.44;;;-10.47;86.87
51359;BME280;37448;51.588;7.248;2022-12-18T03:51:54;102260.69;;;-10.58;86.63
51359;BME280;37448;51.588;7.248;2022-12-18T03:53:59;102267.50;;;-10.57;86.77
51359;BME280;37448;51.588;7.248;2022-12-18T03:56:05;102256.19;;;-10.52;87.08
51359;BME280;37448;51.588;7.248;2022-12-18T03:58:13;102250.09;;;-10.54;86.77
51359;BME280;37448;51.588;7.248;2022-12-18T04:00:29;102253.84;;;-10.59;86.71
51359;BME280;37448;51.588;7.248;2022-12-18T04:02:43;102258.16;;;-10.58;86.72
51359;BME280;37448;51.588;7.248;2022-12-18T04:04:47;102252.50;;;-10.56;86.96
51359;BME280;37448;51.588;7.248;2022-12-18T04:06:51;102252.25;;;-10.59;86.46
51359;BME280;37448;51.588;7.248;2022-12-18T04:08:53;102254.38;;;-10.72;85.86
51359;BME280;37448;51.588;7.248;2022-12-18T04:10:56;102250.78;;;-10.65;87.45
51359;BME280;37448;51.588;7.248;2022-12-18T04:12:57;102249.00;;;-10.67;86.91
51359;BME280;37448;51.588;7.248;2022-12-18T04:14:58;102253.59;;;-10.62;86.75
51359;BME280;37448;51.588;7.248;2022-12-18T04:16:59;102248.69;;;-10.61;87.30
51359;BME280;37448;51.588;7.248;2022-12-18T04:19:04;102250.47;;;-10.60;86.91
51359;BME280;37448;51.588;7.248;2022-12-18T04:21:10;102253.84;;;-10.59;87.26
51359;BME280;37448;51.588;7.248;2022-12-18T04:23:11;102253.84;;;-10.59;87.21
51359;BME280;37448;51.588;7.248;2022-12-18T04:25:13;102245.75;;;-10.65;85.96
51359;BME280;37448;51.588;7.248;2022-12-18T04:27:23;102247.25;;;-10.68;86.47
51359;BME280;37448;51.588;7.248;2022-12-18T04:29:24;102248.00;;;-10.69;86.69
51359;BME280;37448;51.588;7.248;2022-12-18T04:31:26;102248.00;;;-10.69;86.43
51359;BME280;37448;51.588;7.248;2022-12-18T04:33:26;102245.19;;;-10.72;86.54
51359;BME280;37448;51.588;7.248;2022-12-18T04:35:27;102244.72;;;-10.68;87.01
51359;BME280;37448;51.588;7.248;2022-12-18T04:37:27;102254.88;;;-10.76;86.22
51359;BME280;37448;51.588;7.248;2022-12-18T04:39:28;102248.16;;;-10.76;86.35
51359;BME280;37448;51.588;7.248;2022-12-18T04:41:34;102247.41;;;-10.75;86.95
51359;BME280;37448;51.588;7.248;2022-12-18T04:43:34;102246.97;;;-10.71;87.24
51359;BME280;37448;51.588;7.248;2022-12-18T04:45:35;102249.59;;;-10.69;86.70
51359;BME280;37448;51.588;7.248;2022-12-18T04:47:35;102255.69;;;-10.67;87.08
51359;BME280;37448;51.588;7.248;2022-12-18T04:49:36;102258.22;;;-10.67;87.44
51359;BME280;37448;51.588;7.248;2022-12-18T04:51:37;102258.56;;;-10.73;86.65
51359;BME280;37448;51.588;7.248;2022-12-18T04:53:37;102256.75;;;-10.74;87.00
51359;BME280;37448;51.588;7.248;2022-12-18T04:55:37;102250.28;;;-10.80;86.40
51359;BME280;37448;51.588;7.248;2022-12-18T04:57:38;102243.13;;;-10.76;86.99
51359;BME280;37448;51.588;7.248;2022-12-18T04:59:38;102240.88;;;-10.73;87.26
51359;BME280;37448;51.588;7.248;2022-12-18T05:01:38;102237.38;;;-10.84;86.55
51359;BME280;37448;51.588;7.248;2022-12-18T05:03:39;102234.50;;;-10.78;86.80
51359;BME280;37448;51.588;7.248;2022-12-18T05:05:39;102233.91;;;-10.75;87.54
51359;BME280;37448;51.588;7.248;2022-12-18T05:07:40;102228.25;;;-10.73;87.50
51359;BME280;37448;51.588;7.248;2022-12-18T05:09:40;102225.41;;;-10.95;86.06
51359;BME280;37448;51.588;7.248;2022-12-18T05:11:41;102217.03;;;-10.85;86.56
51359;BME280;37448;51.588;7.248;2022-12-18T05:13:41;102210.22;;;-10.86;86.37
51359;BME280;37448;51.588;7.248;2022-12-18T05:15:42;102220.47;;;-10.85;86.32
51359;BME280;37448;51.588;7.248;2022-12-18T05:17:42;102216.84;;;-10.78;86.91
51359;BME280;37448;51.588;7.248;2022-12-18T05:19:42;102217.84;;;-10.76;86.91
51359;BME280;37448;51.588;7.248;2022-12-18T05:21:43;102209.25;;;-10.78;86.74
51359;BME280;37448;51.588;7.248;2022-12-18T05:23:44;102212.81;;;-10.76;87.27
51359;BME280;37448;51.588;7.248;2022-12-18T05:25:51;102214.59;;;-10.75;87.05
51359;BME280;37448;51.588;7.248;2022-12-18T05:27:52;102213.84;;;-10.74;86.88
51359;BME280;37448;51.588;7.248;2022-12-18T05:29:52;102211.03;;;-10.77;86.75
51359;BME280;37448;51.588;7.248;2022-12-18T05:31:53;102207.75;;;-10.76;87.51
51359;BME280;37448;51.588;7.248;2022-12-18T05:33:53;102194.75;;;-10.80;86.90
51359;BME280;37448;51.588;7.248;2022-12-18T05:35:55;102204.38;;;-10.76;87.24
51359;BME280;37448;51.588;7.248;2022-12-18T05:37:56;102206.25;;;-10.74;86.57
51359;BME280;37448;51.588;7.248;2022-12-18T05:39:56;102205.53;;;-10.73;87.20
51359;BME280;37448;51.588;7.248;2022-12-18T05:41:57;102208.06;;;-10.73;87.03
51359;BME280;37448;51.588;7.248;2022-12-18T05:43:58;102208.94;;;-10.72;87.25
51359;BME280;37448;51.588;7.248;2022-12-18T05:46:03;102213.97;;;-10.72;86.92
51359;BME280;37448;51.588;7.248;2022-12-18T05:48:04;102219.94;;;-10.72;87.15
51359;BME280;37448;51.588;7.248;2022-12-18T05:50:05;102221.41;;;-10.74;86.76
51359;BME280;37448;51.588;7.248;2022-12-18T05:52:07;102236.88;;;-10.71;86.81
51359;BME280;37448;51.588;7.248;2022-12-18T05:54:07;102243.41;;;-10.73;87.46
51359;BME280;37448;51.588;7.248;2022-12-18T05:56:09;102238.38;;;-10.73;87.47
51359;BME280;37448;51.588;7.248;2022-12-18T05:58:11;102231.50;;;-10.74;87.25
51359;BME280;37448;51.588;7.248;2022-12-18T06:00:13;102235.84;;;-10.73;87.60
51359;BME280;37448;51.588;7.248;2022-12-18T06:02:13;102230.97;;;-10.80;87.32
51359;BME280;37448;51.588;7.248;2022-12-18T06:04:14;102230.22;;;-10.79;86.96
51359;BME280;37448;51.588;7.248;2022-12-18T06:06:22;102233.75;;;-10.77;87.45
51359;BME280;37448;51.588;7.248;2022-12-18T06:08:23;102241.34;;;-10.77;87.18
51359;BME280;37448;51.588;7.248;2022-12-18T06:10:23;102230.09;;;-10.80;87.09
51359;BME280;37448;51.588;7.248;2022-12-18T06:12:24;102244.59;;;-10.78;87.23
51359;BME280;37448;51.588;7.248;2022-12-18T06:14:24;102243.75;;;-10.78;87.20
51359;BME280;37448;51.588;7.248;2022-12-18T06:16:25;102248.63;;;-10.80;87.31
51359;BME280;37448;51.588;7.248;2022-12-18T06:18:26;102258.00;;;-10.79;87.14
51359;BME280;37448;51.588;7.248;2022-12-18T06:20:26;102250.00;;;-10.84;87.41
51359;BME280;37448;51.588;7.248;2022-12-18T06:22:27;102267.06;;;-10.81;87.22
51359;BME280;37448;51.588;7.248;2022-12-18T06:24:27;102273.59;;;-10.83;87.28
51359;BME280;37448;51.588;7.248;2022-12-18T06:26:28;102273.59;;;-10.83;86.84
51359;BME280;37448;51.588;7.248;2022-12-18T06:28:28;102280.31;;;-10.84;86.97
51359;BME280;37448;51.588;7.248;2022-12-18T06:30:28;102257.75;;;-10.91;86.64
51359;BME280;37448;51.588;7.248;2022-12-18T06:32:29;102267.53;;;-10.85;86.89
51359;BME280;37448;51.588;7.248;2022-12-18T06:34:29;102274.94;;;-10.87;86.86
51359;BME280;37448;51.588;7.248;2022-12-18T06:36:30;102271.56;;;-10.87;86.84
51359;BME280;37448;51.588;7.248;2022-12-18T06:38:32;102262.97;;;-10.89;86.68
51359;BME280;37448;51.588;7.248;2022-12-18T06:40:32;102263.44;;;-10.93;87.00
51359;BME280;37448;51.588;7.248;2022-12-18T06:42:33;102267.72;;;-10.92;86.93
51359;BME280;37448;51.588;7.248;2022-12-18T06:44:33;102264.19;;;-10.94;86.30
51359;BME280;37448;51.588;7.248;2022-12-18T06:46:33;102263.16;;;-10.97;86.85
51359;BME280;37448;51.588;7.248;2022-12-18T06:48:34;102261.34;;;-10.98;86.61
51359;BME280;37448;51.588;7.248;2022-12-18T06:50:34;102255.28;;;-11.00;86.80
51359;BME280;37448;51.588;7.248;2022-12-18T06:52:35;102257.66;;;-11.01;86.63
51359;BME280;37448;51.588;7.248;2022-12-18T06:54:35;102259.28;;;-11.02;86.65
51359;BME280;37448;51.588;7.248;2022-12-18T06:56:35;102253.50;;;-11.01;86.66
51359;BME280;37448;51.588;7.248;2022-12-18T06:58:36;102233.50;;;-11.08;86.47
51359;BME280;37448;51.588;7.248;2022-12-18T07:00:37;102239.84;;;-11.03;86.46
51359;BME280;37448;51.588;7.248;2022-12-18T07:02:37;102240.00;;;-11.01;86.73
51359;BME280;37448;51.588;7.248;2022-12-18T07:04:38;102242.53;;;-11.01;86.65
51359;BME280;37448;51.588;7.248;2022-12-18T07:06:38;102243.28;;;-11.02;86.33
51359;BME280;37448;51.588;7.248;2022-12-18T07:08:38;102237.31;;;-11.03;87.13
51359;BME280;37448;51.588;7.248;2022-12-18T07:10:43;102237.47;;;-11.01;87.08
51359;BME280;37448;51.588;7.248;2022-12-18T07:12:43;102235.81;;;-11.01;86.71
51359;BME280;37448;51.588;7.248;2022-12-18T07:14:44;102229.00;;;-11.02;87.25
51359;BME280;37448;51.588;7.248;2022-12-18T07:16:44;102229.00;;;-11.02;87.18
51359;BME280;37448;51.588;7.248;2022-12-18T07:18:45;102230.66;;;-11.02;86.83
51359;BME280;37448;51.588;7.248;2022-12-18T07:20:45;102229.91;;;-11.01;87.07
51359;BME280;37448;51.588;7.248;2022-12-18T07:22:45;102224.59;;;-11.04;86.67
51359;BME280;37448;51.588;7.248;2022-12-18T07:24:46;102218.63;;;-11.05;87.23
51359;BME280;37448;51.588;7.248;2022-12-18T07:26:46;102227.22;;;-11.03;86.67
51359;BME280;37448;51.588;7.248;2022-12-18T07:28:47;102232.28;;;-11.03;87.13
51359;BME280;37448;51.588;7.248;2022-12-18T07:30:47;102232.28;;;-11.03;87.11
51359;BME280;37448;51.588;7.248;2022-12-18T07:32:48;102227.84;;;-11.05;87.20
51359;BME280;37448;51.588;7.248;2022-12-18T07:34:48;102224.69;;;-11.03;87.52
51359;BME280;37448;51.588;7.248;2022-12-18T07:36:48;102217.13;;;-11.03;87.40
51359;BME280;37448;51.588;7.248;2022-12-18T07:38:49;102212.34;;;-11.00;87.54
51359;BME280;37448;51.588;7.248;2022-12-18T07:40:50;102222.75;;;-10.97;87.47
51359;BME280;37448;51.588;7.248;2022-12-18T07:42:50;102222.13;;;-10.94;87.72
51359;BME280;37448;51.588;7.248;2022-12-18T07:44:51;102226.59;;;-10.91;87.86
51359;BME280;37448;51.588;7.248;2022-12-18T07:46:51;102221.81;;;-10.88;87.76
51359;BME280;37448;51.588;7.248;2022-12-18T07:48:51;102217.94;;;-10.85;87.76
51359;BME280;37448;51.588;7.248;2022-12-18T07:50:52;102214.94;;;-10.80;87.97
51359;BME280;37448;51.588;7.248;2022-12-18T07:52:52;102210.16;;;-10.77;88.35
51359;BME280;37448;51.588;7.248;2022-12-18T07:54:53;102212.22;;;-10.73;88.09
51359;BME280;37448;51.588;7.248;2022-12-18T07:56:53;102213.66;;;-10.67;88.71
51359;BME280;37448;51.588;7.248;2022-12-18T07:58:54;102224.91;;;-10.63;88.32
51359;BME280;37448;51.588;7.248;2022-12-18T08:01:08;102221.03;;;-10.59;88.13
51359;BME280;37448;51.588;7.248;2022-12-18T08:03:09;102225.75;;;-10.54;88.50
51359;BME280;37448;51.588;7.248;2022-12-18T08:05:09;102228.66;;;-10.49;88.50
51359;BME280;37448;51.588;7.248;2022-12-18T08:07:10;102228.47;;;-10.42;89.05
51359;BME280;37448;51.588;7.248;2022-12-18T08:09:10;102219.63;;;-10.36;88.99
51359;BME280;37448;51.588;7.248;2022-12-18T08:11:11;102225.22;;;-10.30;89.00
51359;BME280;37448;51.588;7.248;2022-12-18T08:13:11;102221.44;;;-10.25;89.28
51359;BME280;37448;51.588;7.248;2022-12-18T08:15:12;102222.03;;;-10.19;89.51
51359;BME280;37448;51.588;7.248;2022-12-18T08:17:12;102228.63;;;-10.11;89.95
51359;BME280;37448;51.588;7.248;2022-12-18T08:19:12;102225.88;;;-10.03;90.03
51359;BME280;37448;51.588;7.248;2022-12-18T08:21:15;102223.41;;;-9.93;90.07
51359;BME280;37448;51.588;7.248;2022-12-18T08:23:16;102213.47;;;-9.81;90.90
51359;BME280;37448;51.588;7.248;2022-12-18T08:25:17;102202.13;;;-9.66;91.17
51359;BME280;37448;51.588;7.248;2022-12-18T08:27:17;102197.53;;;-9.50;91.67
51359;BME280;37448;51.588;7.248;2022-12-18T08:29:18;102192.97;;;-9.34;91.68
51359;BME280;37448;51.588;7.248;2022-12-18T08:31:19;102188.97;;;-9.21;92.31
51359;BME280;37448;51.588;7.248;2022-12-18T08:33:19;102161.88;;;-9.23;92.59
51359;BME280;37448;51.588;7.248;2022-12-18T08:35:20;102175.16;;;-9.04;92.51
51359;BME280;37448;51.588;7.248;2022-12-18T08:37:20;102180.63;;;-9.00;92.18
51359;BME280;37448;51.588;7.248;2022-12-18T08:39:20;102187.72;;;-8.96;92.36
51359;BME280;37448;51.588;7.248;2022-12-18T08:41:21;102181.38;;;-8.90;92.70
51359;BME280;37448;51.588;7.248;2022-12-18T08:43:25;102162.63;;;-8.82;92.43
51359;BME280;37448;51.588;7.248;2022-12-18T08:46:00;102165.00;;;-8.53;93.42
51359;BME280;37448;51.588;7.248;2022-12-18T08:48:00;102155.63;;;-8.21;93.83
51359;BME280;37448;51.588;7.248;2022-12-18T08:50:01;102156.84;;;-7.83;94.21
51359;BME280;37448;51.588;7.248;2022-12-18T08:52:02;102160.97;;;-7.51;94.59
51359;BME280;37448;51.588;7.248;2022-12-18T08:54:03;102159.25;;;-7.18;93.71
51359;BME280;37448;51.588;7.248;2022-12-18T08:56:04;102157.41;;;-6.97;94.64
51359;BME280;37448;51.588;7.248;2022-12-18T08:58:05;102172.94;;;-6.70;94.52
51359;BME280;37448;51.588;7.248;2022-12-18T09:00:06;102164.91;;;-6.52;94.73
51359;BME280;37448;51.588;7.248;2022-12-18T09:02:09;102167.66;;;-6.25;94.63
51359;BME280;37448;51.588;7.248;2022-12-18T09:04:10;102161.63;;;-5.90;95.14
51359;BME280;37448;51.588;7.248;2022-12-18T09:06:13;102163.97;;;-5.56;95.36
51359;BME280;37448;51.588;7.248;2022-12-18T09:08:14;102149.78;;;-5.27;95.03
51359;BME280;37448;51.588;7.248;2022-12-18T09:10:15;102154.47;;;-4.94;94.96
51359;BME280;37448;51.588;7.248;2022-12-18T09:12:15;102159.72;;;-4.66;94.86
51359;BME280;37448;51.588;7.248;2022-12-18T09:14:15;102156.41;;;-4.38;94.87
51359;BME280;37448;51.588;7.248;2022-12-18T09:16:16;102158.72;;;-4.00;94.83
51359;BME280;37448;51.588;7.248;2022-12-18T09:18:18;102151.22;;;-3.70;94.82
51359;BME280;37448;51.588;7.248;2022-12-18T09:20:18;102147.59;;;-3.46;92.13
51359;BME280;37448;51.588;7.248;2022-12-18T09:22:19;102130.94;;;-3.39;92.53
51359;BME280;37448;51.588;7.248;2022-12-18T09:24:22;102128.66;;;-3.34;91.94
51359;BME280;37448;51.588;7.248;2022-12-18T09:26:23;102128.84;;;-3.31;91.78
51359;BME280;37448;51.588;7.248;2022-12-18T09:28:24;102129.38;;;-3.37;90.59
51359;BME280;37448;51.588;7.248;2022-12-18T09:30:25;102140.28;;;-3.39;90.69
51359;BME280;37448;51.588;7.248;2022-12-18T09:32:25;102147.97;;;-3.39;89.70
51359;BME280;37448;51.588;7.248;2022-12-18T09:34:26;102146.81;;;-3.44;88.76
51359;BME280;37448;51.588;7.248;2022-12-18T09:36:26;102133.56;;;-3.52;88.24
51359;BME280;37448;51.588;7.248;2022-12-18T09:38:26;102124.06;;;-3.40;88.99
51359;BME280;37448;51.588;7.248;2022-12-18T09:40:33;102126.91;;;-3.20;88.44
51359;BME280;37448;51.588;7.248;2022-12-18T09:42:34;102128.28;;;-2.82;86.07
51359;BME280;37448;51.588;7.248;2022-12-18T09:44:44;102135.72;;;-2.40;80.22
51359;BME280;37448;51.588;7.248;2022-12-18T09:46:58;102137.75;;;-2.03;84.62
51359;BME280;37448;51.588;7.248;2022-12-18T09:49:05;102139.09;;;-1.78;87.39
51359;BME280;37448;51.588;7.248;2022-12-18T09:51:16;102135.25;;;-1.69;84.18
51359;BME280;37448;51.588;7.248;2022-12-18T09:53:21;102136.19;;;-1.67;84.83
51359;BME280;37448;51.588;7.248;2022-12-18T09:55:28;102133.63;;;-1.67;82.74
51359;BME280;37448;51.588;7.248;2022-12-18T09:57:31;102139.66;;;-1.67;84.66
51359;BME280;37448;51.588;7.248;2022-12-18T09:59:36;102143.06;;;-1.66;83.56
51359;BME280;37448;51.588;7.248;2022-12-18T10:01:37;102145.56;;;-1.68;84.35
51359;BME280;37448;51.588;7.248;2022-12-18T10:03:37;102140.03;;;-1.76;83.53
51359;BME280;37448;51.588;7.248;2022-12-18T10:05:46;102148.28;;;-1.81;82.06
51359;BME280;37448;51.588;7.248;2022-12-18T10:08:02;102141.94;;;-2.05;82.42
51359;BME280;37448;51.588;7.248;2022-12-18T10:10:21;102137.03;;;-2.32;81.30
51359;BME280;37448;51.588;7.248;2022-12-18T10:12:32;102128.72;;;-2.74;81.89
51359;BME280;37448;51.588;7.248;2022-12-18T10:21:37;102108.88;;;-4.09;83.38
51359;BME280;37448;51.588;7.248;2022-12-18T10:25:54;102108.13;;;-4.48;83.63
51359;BME280;37448;51.588;7.248;2022-12-18T10:27:58;102100.56;;;-4.60;84.05
51359;BME280;37448;51.588;7.248;2022-12-18T10:30:00;102089.28;;;-4.77;84.70
51359;BME280;37448;51.588;7.248;2022-12-18T10:32:01;102085.38;;;-4.85;85.31
51359;BME280;37448;51.588;7.248;2022-12-18T10:34:01;102086.75;;;-4.91;85.99
51359;BME280;37448;51.588;7.248;2022-12-18T10:36:02;102084.56;;;-4.98;85.88
51359;BME280;37448;51.588;7.248;2022-12-18T10:38:06;102079.06;;;-5.04;86.51
51359;BME280;37448;51.588;7.248;2022-12-18T10:40:15;102071.03;;;-5.10;86.50
51359;BME280;37448;51.588;7.248;2022-12-18T10:42:18;102070.06;;;-5.12;87.01
51359;BME280;37448;51.588;7.248;2022-12-18T10:44:20;102057.13;;;-5.15;86.86
51359;BME280;37448;51.588;7.248;2022-12-18T10:46:21;102058.00;;;-5.15;87.35
51359;BME280;37448;51.588;7.248;2022-12-18T10:48:22;102056.22;;;-5.16;87.23
51359;BME280;37448;51.588;7.248;2022-12-18T10:50:30;102060.22;;;-5.20;87.36
51359;BME280;37448;51.588;7.248;2022-12-18T10:52:31;102061.44;;;-5.14;87.30
51359;BME280;37448;51.588;7.248;2022-12-18T10:54:32;102050.47;;;-5.13;87.37
51359;BME280;37448;51.588;7.248;2022-12-18T10:56:35;102055.75;;;-5.10;87.37
51359;BME280;37448;51.588;7.248;2022-12-18T10:58:38;102054.97;;;-5.09;87.87
51359;BME280;37448;51.588;7.248;2022-12-18T11:00:38;102059.59;;;-5.03;87.17
51359;BME280;37448;51.588;7.248;2022-12-18T11:02:39;102068.41;;;-4.98;87.26
51359;BME280;37448;51.588;7.248;2022-12-18T11:04:51;102054.97;;;-4.96;87.60
51359;BME280;37448;51.588;7.248;2022-12-18T11:07:05;102045.78;;;-4.94;87.59
51359;BME280;37448;51.588;7.248;2022-12-18T11:09:21;102041.75;;;-4.90;88.04